Time;durP1;ratioP1;P1;durP2;ratioP2;P2;SDS_P1;SDS_P2;PMS_P1;PMS_P2;Temp;Humidity;BMP_temperature;BMP_pressure;BME280_temperature;BME280_humidity;BME280_pressure;Samples;Min_cycle;Max_cycle;Signal;HPM_P1;HPM_P2
2023/02/13 00:01:22;;;;;;;23.83;18.07;;;7.30;99.90;;;;;;5055589;28;20567;-70
2023/02/13 00:03:49;;;;;;;25.47;18.87;;;7.30;99.90;;;;;;5056293;28;20485;-70
2023/02/13 00:06:16;;;;;;;27.87;19.93;;;7.30;99.90;;;;;;5053098;28;20483;-70
2023/02/13 00:08:43;;;;;;;21.07;18.23;;;7.30;99.90;;;;;;5052020;28;20464;-70
2023/02/13 00:11:10;;;;;;;22.77;18.83;;;7.30;99.90;;;;;;5053218;28;20467;-70
2023/02/13 00:13:37;;;;;;;25.57;19.13;;;7.40;99.90;;;;;;5051667;28;20471;-70
2023/02/13 00:16:06;;;;;;;26.07;20.40;;;7.40;99.90;;;;;;5054120;28;20485;-70
2023/02/13 00:18:35;;;;;;;28.10;21.53;;;7.40;99.90;;;;;;5050655;28;20463;-70
2023/02/13 00:21:04;;;;;;;26.20;20.13;;;7.40;99.90;;;;;;5061823;28;20592;-70
2023/02/13 00:23:33;;;;;;;25.97;19.50;;;7.30;99.90;;;;;;5058881;28;20454;-70
2023/02/13 00:26:04;;;;;;;23.57;19.50;;;7.30;99.90;;;;;;5054580;28;20783;-70
2023/02/13 00:28:31;;;;;;;32.33;20.40;;;7.30;99.90;;;;;;5040469;28;20463;-70
2023/02/13 00:31:05;;;;;;;27.90;19.57;;;7.40;99.90;;;;;;5056096;28;20847;-70
2023/02/13 00:33:32;;;;;;;35.47;20.87;;;7.30;99.90;;;;;;5055574;28;20499;-70
2023/02/13 00:36:07;;;;;;;28.03;20.80;;;7.30;99.90;;;;;;5052550;28;20834;-70
2023/02/13 00:38:35;;;;;;;30.50;22.23;;;7.30;99.90;;;;;;5053236;28;20471;-70
2023/02/13 00:41:02;;;;;;;33.73;21.40;;;7.30;99.90;;;;;;5052841;28;20467;-70
2023/02/13 00:43:29;;;;;;;29.23;20.67;;;7.30;99.90;;;;;;5059291;28;20466;-70
2023/02/13 00:45:57;;;;;;;28.07;22.23;;;7.30;99.90;;;;;;5052894;28;20570;-70
2023/02/13 00:48:25;;;;;;;27.13;20.83;;;7.20;99.90;;;;;;5053994;28;20475;-70
2023/02/13 00:50:52;;;;;;;28.90;22.00;;;7.20;99.90;;;;;;5054288;28;20467;-70
2023/02/13 00:53:19;;;;;;;25.33;20.83;;;7.20;99.90;;;;;;5057179;28;20957;-70
2023/02/13 00:55:46;;;;;;;28.77;21.23;;;7.10;99.90;;;;;;5050506;28;20468;-70
2023/02/13 00:58:13;;;;;;;31.40;22.13;;;7.10;99.90;;;;;;5059780;28;20471;-70
2023/02/13 01:00:40;;;;;;;27.80;21.60;;;7.00;99.90;;;;;;5053931;28;20455;-70
2023/02/13 01:03:07;;;;;;;28.17;21.47;;;7.00;99.90;;;;;;5056074;28;20459;-70
2023/02/13 01:05:36;;;;;;;29.20;20.83;;;6.90;99.90;;;;;;5050081;28;20551;-70
2023/02/13 01:08:03;;;;;;;31.67;21.77;;;6.90;99.90;;;;;;5052357;28;20988;-70
2023/02/13 01:10:30;;;;;;;26.33;21.73;;;6.90;99.90;;;;;;5065555;28;20459;-71
2023/02/13 01:12:57;;;;;;;28.77;22.77;;;6.80;99.90;;;;;;5059723;28;20558;-70
2023/02/13 01:15:23;;;;;;;38.20;23.30;;;6.80;99.90;;;;;;5058736;28;20497;-70
2023/02/13 01:17:53;;;;;;;35.47;23.00;;;6.70;99.90;;;;;;5061118;28;20546;-70
2023/02/13 01:20:20;;;;;;;40.30;23.47;;;6.60;99.90;;;;;;5060523;28;20470;-71
2023/02/13 01:22:48;;;;;;;29.87;23.17;;;6.60;99.90;;;;;;5061642;28;20483;-70
2023/02/13 01:25:16;;;;;;;35.60;23.90;;;6.50;99.90;;;;;;5056998;28;20474;-70
2023/02/13 01:27:43;;;;;;;32.00;23.00;;;6.40;99.90;;;;;;5051615;28;20499;-70
2023/02/13 01:30:12;;;;;;;32.97;23.13;;;6.40;99.90;;;;;;5060226;28;20461;-70
2023/02/13 01:32:39;;;;;;;34.10;23.80;;;6.30;99.90;;;;;;5065125;28;20467;-70
2023/02/13 01:35:07;;;;;;;34.17;23.40;;;6.30;99.90;;;;;;5059782;28;20468;-70
2023/02/13 01:37:33;;;;;;;33.60;23.00;;;6.20;99.90;;;;;;5055745;28;21031;-70
2023/02/13 01:40:01;;;;;;;38.03;23.33;;;6.20;99.90;;;;;;5056963;28;20464;-70
2023/02/13 01:42:30;;;;;;;36.17;25.33;;;6.20;99.90;;;;;;5053302;28;20553;-70
2023/02/13 01:44:58;;;;;;;37.17;24.60;;;6.10;99.90;;;;;;5055309;28;20464;-70
2023/02/13 01:47:27;;;;;;;46.17;25.90;;;6.10;99.90;;;;;;5056895;28;20503;-70
2023/02/13 01:50:03;;;;;;;37.00;25.90;;;6.10;99.90;;;;;;5057547;28;20961;-70
2023/02/13 01:52:31;;;;;;;34.10;24.80;;;6.00;99.90;;;;;;5055151;28;20466;-70
2023/02/13 01:54:58;;;;;;;37.93;24.87;;;6.00;99.90;;;;;;5046773;28;20834;-70
2023/02/13 01:57:30;;;;;;;31.20;23.07;;;6.00;99.90;;;;;;5061575;28;20466;-70
2023/02/13 02:00:01;;;;;;;30.47;24.50;;;5.90;99.90;;;;;;5051545;28;20463;-70
2023/02/13 02:02:28;;;;;;;36.17;24.60;;;5.90;99.90;;;;;;5053442;28;20825;-70
2023/02/13 02:04:56;;;;;;;35.13;24.00;;;5.90;99.90;;;;;;5057823;28;20502;-70
2023/02/13 02:07:26;;;;;;;36.63;25.53;;;5.80;99.90;;;;;;5055642;28;21003;-70
2023/02/13 02:09:56;;;;;;;38.00;25.57;;;5.80;99.90;;;;;;5060185;28;20974;-70
2023/02/13 02:12:29;;;;;;;38.93;25.23;;;5.80;99.90;;;;;;5053333;28;20476;-70
2023/02/13 02:14:58;;;;;;;37.57;25.83;;;5.80;99.90;;;;;;5056795;28;20466;-70
2023/02/13 02:17:27;;;;;;;39.27;25.40;;;5.80;99.90;;;;;;5055141;28;20471;-70
2023/02/13 02:20:04;;;;;;;32.63;23.40;;;5.70;99.90;;;;;;5058798;28;20467;-70
2023/02/13 02:23:03;;;;;;;39.67;26.00;;;5.70;99.90;;;;;;5054048;28;20494;-70
2023/02/13 02:26:27;;;;;;;32.80;23.90;;;5.70;99.90;;;;;;5056036;28;20541;-70
2023/02/13 02:29:33;;;;;;;33.43;23.73;;;5.60;99.90;;;;;;4976564;28;20863;-69
2023/02/13 02:32:20;;;;;;;39.57;24.93;;;5.70;99.90;;;;;;4977069;28;21029;-70
2023/02/13 02:34:56;;;;;;;36.60;26.57;;;5.60;99.90;;;;;;5051776;28;20468;-70
2023/02/13 02:37:43;;;;;;;29.50;22.60;;;5.50;99.90;;;;;;5057614;28;20513;-70
2023/02/13 02:40:19;;;;;;;30.93;24.33;;;5.50;99.90;;;;;;5055988;28;20463;-70
2023/02/13 02:43:00;;;;;;;34.00;25.40;;;5.40;99.90;;;;;;5061418;28;20596;-70
2023/02/13 02:45:34;;;;;;;34.63;24.83;;;5.40;99.90;;;;;;5048687;28;20459;-70
2023/02/13 02:51:00;;;;;;;35.20;23.73;;;5.40;99.90;;;;;;5056161;28;20466;-70
2023/02/13 02:53:37;;;;;;;36.30;25.30;;;5.50;99.90;;;;;;5053377;28;20834;-70
2023/02/13 02:56:12;;;;;;;32.47;25.37;;;5.60;99.90;;;;;;5054630;28;20767;-69
2023/02/13 03:07:07;;;;;;;35.33;24.57;;;5.50;99.90;;;;;;5053338;28;20735;-70
2023/02/13 03:15:13;;;;;;;36.80;25.77;;;5.60;99.90;;;;;;5060367;28;20487;-70
2023/02/13 03:23:30;;;;;;;34.07;22.40;;;5.50;99.90;;;;;;5052573;28;20966;-70
2023/02/13 03:26:32;;;;;;;34.77;22.27;;;5.60;99.90;;;;;;5054598;28;20455;-70
2023/02/13 03:32:00;;;;;;;35.47;22.83;;;5.60;99.90;;;;;;5049246;28;21177;-70
2023/02/13 03:37:53;;;;;;;35.10;24.60;;;5.60;99.90;;;;;;5057047;28;20589;-69
2023/02/13 03:40:16;;;;;;;28.20;23.70;;;5.50;99.90;;;;;;5060429;28;20457;-70
2023/02/13 03:42:46;;;;;;;31.73;22.87;;;5.60;99.90;;;;;;5060744;28;20479;-70
2023/02/13 03:48:08;;;;;;;34.83;23.50;;;5.60;99.90;;;;;;5050765;28;21127;-69
2023/02/13 03:50:37;;;;;;;27.90;22.70;;;5.60;99.90;;;;;;5054081;28;20462;-70
2023/02/13 03:53:09;;;;;;;32.97;23.77;;;5.60;99.90;;;;;;5055576;28;20463;-70
2023/02/13 04:01:16;;;;;;;31.43;24.67;;;5.60;99.90;;;;;;5048677;28;21010;-70
2023/02/13 04:03:48;;;;;;;29.37;23.43;;;5.60;99.90;;;;;;5046378;28;20505;-69
2023/02/13 04:06:19;;;;;;;34.37;23.97;;;5.60;99.90;;;;;;5052346;28;20465;-69
2023/02/13 04:08:48;;;;;;;35.00;23.60;;;5.60;99.90;;;;;;5051075;28;20469;-69
2023/02/13 04:11:18;;;;;;;42.23;24.17;;;5.60;99.90;;;;;;5059472;28;20471;-69
2023/02/13 04:13:50;;;;;;;29.10;23.00;;;5.50;99.90;;;;;;5056402;28;20468;-69
2023/02/13 04:16:21;;;;;;;33.30;23.20;;;5.50;99.90;;;;;;5054499;28;20475;-69
2023/02/13 04:18:50;;;;;;;26.67;22.47;;;5.40;99.90;;;;;;5051220;28;20464;-69
2023/02/13 04:21:17;;;;;;;31.17;23.43;;;5.50;99.90;;;;;;5053957;28;20470;-69
2023/02/13 04:23:44;;;;;;;37.67;24.07;;;5.50;99.90;;;;;;5053683;28;20556;-69
2023/02/13 04:26:17;;;;;;;32.37;24.80;;;5.50;99.90;;;;;;5050674;28;20487;-69
2023/02/13 04:28:44;;;;;;;28.97;22.67;;;5.50;99.90;;;;;;5057232;28;21184;-70
2023/02/13 04:31:11;;;;;;;34.63;24.80;;;5.50;99.90;;;;;;5056265;28;20463;-70
2023/02/13 04:33:38;;;;;;;32.97;23.10;;;5.50;99.90;;;;;;5059632;28;20842;-70
2023/02/13 04:36:06;;;;;;;29.70;25.40;;;5.50;99.90;;;;;;5052576;28;20459;-70
2023/02/13 04:38:32;;;;;;;29.10;23.70;;;5.50;99.90;;;;;;5053547;28;20945;-70
2023/02/13 04:40:59;;;;;;;31.50;23.13;;;5.50;99.90;;;;;;5052179;28;20467;-70
2023/02/13 04:43:27;;;;;;;33.63;24.80;;;5.40;99.90;;;;;;5060280;28;20463;-69
2023/02/13 04:45:54;;;;;;;32.73;24.70;;;5.40;99.90;;;;;;5062674;28;20962;-70
2023/02/13 04:48:21;;;;;;;31.20;25.23;;;5.40;99.90;;;;;;5055519;28;21108;-70
2023/02/13 04:50:47;;;;;;;29.17;25.70;;;5.30;99.90;;;;;;5060889;28;20485;-70
2023/02/13 04:53:14;;;;;;;34.07;27.60;;;5.30;99.90;;;;;;5057184;28;20547;-70
2023/02/13 04:55:41;;;;;;;35.13;24.73;;;5.30;99.90;;;;;;5053537;28;21012;-70
2023/02/13 04:58:08;;;;;;;31.87;25.03;;;5.30;99.90;;;;;;5049205;28;21042;-70
2023/02/13 05:00:36;;;;;;;37.20;27.17;;;5.30;99.90;;;;;;5057834;28;20473;-70
2023/02/13 05:03:06;;;;;;;34.43;26.80;;;5.30;99.90;;;;;;5062411;28;20557;-70
2023/02/13 05:05:33;;;;;;;34.33;27.17;;;5.30;99.90;;;;;;5059640;28;20459;-70
2023/02/13 05:08:00;;;;;;;32.80;25.73;;;5.30;99.90;;;;;;5043518;28;20488;-70
2023/02/13 05:10:28;;;;;;;33.17;27.40;;;5.20;99.90;;;;;;5063415;28;20459;-70
2023/02/13 05:12:54;;;;;;;33.27;26.10;;;5.20;99.90;;;;;;5062930;28;20472;-70
2023/02/13 05:15:22;;;;;;;34.27;26.80;;;5.20;99.90;;;;;;5058144;28;20467;-71
2023/02/13 05:17:51;;;;;;;33.23;27.07;;;5.20;99.90;;;;;;5051378;28;20569;-70
2023/02/13 05:20:18;;;;;;;37.40;28.03;;;5.20;99.90;;;;;;5057157;28;20459;-69
2023/02/13 05:25:29;;;;;;;33.53;27.40;;;5.20;99.90;;;;;;5050788;28;20461;-70
2023/02/13 05:27:57;;;;;;;31.73;27.60;;;5.10;99.90;;;;;;5058827;28;20499;-70
2023/02/13 05:30:24;;;;;;;34.23;27.20;;;5.20;99.90;;;;;;5053744;28;20796;-70
2023/02/13 05:32:53;;;;;;;37.83;27.10;;;5.20;99.90;;;;;;5057898;28;20470;-70
2023/02/13 05:35:21;;;;;;;38.50;27.77;;;5.10;99.90;;;;;;5052860;28;20562;-69
2023/02/13 05:37:48;;;;;;;41.17;26.80;;;5.10;99.90;;;;;;5056556;28;20510;-69
2023/02/13 05:40:16;;;;;;;34.43;28.10;;;5.00;99.90;;;;;;5058529;28;20531;-70
2023/02/13 05:42:43;;;;;;;32.13;27.63;;;5.00;99.90;;;;;;5061024;28;20538;-70
2023/02/13 05:45:10;;;;;;;36.43;28.47;;;5.00;99.90;;;;;;5055815;28;20471;-69
2023/02/13 05:47:37;;;;;;;31.80;27.07;;;5.10;99.90;;;;;;5060848;28;20874;-69
2023/02/13 05:50:07;;;;;;;41.67;29.87;;;5.10;99.90;;;;;;5055036;28;20462;-69
2023/02/13 05:52:35;;;;;;;36.93;27.63;;;5.10;99.90;;;;;;5055433;28;20467;-69
2023/02/13 05:55:02;;;;;;;35.23;28.20;;;5.10;99.90;;;;;;5064918;28;20471;-69
2023/02/13 05:57:28;;;;;;;33.77;26.37;;;5.10;99.90;;;;;;5061566;28;20987;-69
2023/02/13 05:59:55;;;;;;;39.53;28.47;;;5.10;99.90;;;;;;5054453;28;20491;-70
2023/02/13 06:02:22;;;;;;;37.83;26.03;;;5.10;99.90;;;;;;5051995;28;20521;-70
2023/02/13 06:04:49;;;;;;;35.43;26.80;;;5.00;99.90;;;;;;5060451;28;20495;-70
2023/02/13 06:07:18;;;;;;;41.13;28.63;;;5.00;99.90;;;;;;5055027;28;20798;-70
2023/02/13 06:09:45;;;;;;;39.50;29.60;;;5.10;99.90;;;;;;5059325;28;20478;-69
2023/02/13 06:12:12;;;;;;;34.93;27.57;;;5.10;99.90;;;;;;5051158;28;20683;-70
2023/02/13 06:14:39;;;;;;;30.67;26.10;;;5.00;99.90;;;;;;5053393;28;20484;-69
2023/02/13 06:17:05;;;;;;;38.93;28.90;;;5.00;99.90;;;;;;5055806;28;20570;-70
2023/02/13 06:19:32;;;;;;;37.83;28.00;;;4.90;99.90;;;;;;5059740;28;20470;-69
2023/02/13 06:21:59;;;;;;;36.13;27.57;;;5.00;99.90;;;;;;5060846;28;20466;-70
2023/02/13 06:24:27;;;;;;;33.37;27.67;;;5.00;99.90;;;;;;5058918;28;20882;-70
2023/02/13 06:26:54;;;;;;;36.43;28.80;;;5.10;99.90;;;;;;5053522;28;20945;-70
2023/02/13 06:29:21;;;;;;;33.00;27.77;;;5.00;99.90;;;;;;5050671;28;20494;-70
2023/02/13 06:31:48;;;;;;;36.73;27.87;;;5.00;99.90;;;;;;5058091;28;20466;-69
2023/02/13 06:34:15;;;;;;;42.53;28.20;;;5.00;99.90;;;;;;5056304;28;20605;-70
2023/02/13 06:36:41;;;;;;;40.97;27.70;;;5.00;99.90;;;;;;5063646;28;20463;-70
2023/02/13 06:39:10;;;;;;;43.30;30.50;;;5.00;99.90;;;;;;5056979;28;20458;-69
2023/02/13 06:41:38;;;;;;;39.50;27.13;;;5.00;99.90;;;;;;5055158;28;21107;-70
2023/02/13 06:44:06;;;;;;;39.80;29.20;;;5.00;99.90;;;;;;5051502;28;20973;-69
2023/02/13 06:46:33;;;;;;;39.43;27.77;;;5.00;99.90;;;;;;5051466;28;20465;-70
2023/02/13 06:49:00;;;;;;;33.53;26.70;;;5.00;99.90;;;;;;5062486;28;20489;-69
2023/02/13 06:51:26;;;;;;;31.83;25.17;;;5.00;99.90;;;;;;5055623;28;20458;-69
2023/02/13 06:53:53;;;;;;;37.70;28.03;;;5.00;99.90;;;;;;5052002;28;20466;-69
2023/02/13 06:56:20;;;;;;;38.53;26.83;;;5.10;99.90;;;;;;5050177;28;20960;-69
2023/02/13 06:58:48;;;;;;;40.00;27.20;;;5.00;99.90;;;;;;5051298;28;20471;-69
2023/02/13 07:01:15;;;;;;;40.90;28.87;;;5.10;99.90;;;;;;5063957;28;20454;-70
2023/02/13 07:03:41;;;;;;;41.20;27.70;;;5.10;99.90;;;;;;5052534;28;20494;-69
2023/02/13 07:06:08;;;;;;;32.07;27.30;;;5.10;99.90;;;;;;5050688;28;20467;-69
2023/02/13 07:08:35;;;;;;;38.13;27.30;;;5.10;99.90;;;;;;5055863;28;20481;-69
2023/02/13 07:11:01;;;;;;;39.90;27.93;;;5.10;99.90;;;;;;5058157;28;20466;-69
2023/02/13 07:13:28;;;;;;;36.63;27.20;;;5.10;99.90;;;;;;5056778;28;20463;-69
2023/02/13 07:16:00;;;;;;;36.53;28.57;;;5.20;99.90;;;;;;5061788;28;20467;-69
2023/02/13 07:18:27;;;;;;;37.77;27.33;;;5.20;99.90;;;;;;5059442;28;20491;-70
2023/02/13 07:20:54;;;;;;;37.67;26.20;;;5.20;99.90;;;;;;5057555;28;20512;-70
2023/02/13 07:23:21;;;;;;;40.03;25.50;;;5.30;99.90;;;;;;5054300;28;20459;-69
2023/02/13 07:25:48;;;;;;;36.60;27.63;;;5.30;99.90;;;;;;5048553;28;20472;-70
2023/02/13 07:28:15;;;;;;;33.50;25.77;;;5.30;99.90;;;;;;5063838;28;20486;-69
2023/02/13 07:30:42;;;;;;;43.43;25.70;;;5.40;99.90;;;;;;5061041;28;20485;-70
2023/02/13 07:33:11;;;;;;;40.57;27.50;;;5.50;99.90;;;;;;5051398;28;20467;-70
2023/02/13 07:35:39;;;;;;;38.80;27.93;;;5.50;99.90;;;;;;5051708;28;21217;-69
2023/02/13 07:38:06;;;;;;;37.17;27.30;;;5.50;99.90;;;;;;5051458;28;20530;-69
2023/02/13 07:40:33;;;;;;;39.57;27.27;;;5.50;99.90;;;;;;5050664;28;20953;-70
2023/02/13 07:43:01;;;;;;;34.80;26.80;;;5.50;99.90;;;;;;5051491;28;20489;-70
2023/02/13 07:45:28;;;;;;;36.23;27.57;;;5.50;99.90;;;;;;5057552;28;20519;-70
2023/02/13 07:47:55;;;;;;;31.37;27.07;;;5.50;99.90;;;;;;5050972;28;20477;-70
2023/02/13 07:50:24;;;;;;;30.33;26.67;;;5.60;99.90;;;;;;5053793;28;20553;-69
2023/02/13 07:52:55;;;;;;;34.60;26.33;;;5.60;99.90;;;;;;5053114;28;20462;-69
2023/02/13 07:55:22;;;;;;;38.37;28.33;;;5.60;99.90;;;;;;5047531;28;20549;-70
2023/02/13 07:57:49;;;;;;;32.30;25.70;;;5.70;99.90;;;;;;5053406;28;20749;-71
2023/02/13 08:00:17;;;;;;;41.03;27.40;;;5.70;99.90;;;;;;5047811;28;20475;-70
2023/02/13 08:02:45;;;;;;;38.60;31.73;;;5.80;99.90;;;;;;5052679;28;20486;-70
2023/02/13 08:05:11;;;;;;;36.20;29.63;;;5.80;99.90;;;;;;5054068;28;20483;-70
2023/02/13 08:07:39;;;;;;;35.03;31.10;;;5.90;99.90;;;;;;5050066;28;20470;-70
2023/02/13 08:12:52;;;;;;;38.63;30.57;;;6.00;99.90;;;;;;5052159;28;20487;-70
2023/02/13 08:15:20;;;;;;;37.53;30.63;;;6.10;99.90;;;;;;5052831;28;20477;-70
2023/02/13 08:17:46;;;;;;;37.57;30.80;;;6.10;99.90;;;;;;5051325;28;20460;-70
2023/02/13 08:20:13;;;;;;;36.73;31.00;;;6.20;99.90;;;;;;5049566;28;20537;-69
2023/02/13 08:22:41;;;;;;;37.23;33.23;;;6.30;99.90;;;;;;5052576;28;21051;-70
2023/02/13 08:25:08;;;;;;;41.17;33.00;;;6.30;99.90;;;;;;5050283;28;20468;-70
2023/02/13 08:27:35;;;;;;;42.10;32.30;;;6.50;99.90;;;;;;5055306;28;21118;-70
2023/02/13 08:30:03;;;;;;;40.53;31.10;;;6.50;99.90;;;;;;5054941;28;20490;-70
2023/02/13 08:32:30;;;;;;;41.87;30.37;;;6.60;99.90;;;;;;5047135;28;20470;-70
2023/02/13 08:34:56;;;;;;;35.93;31.33;;;6.70;99.90;;;;;;5050932;28;20471;-70
2023/02/13 08:37:24;;;;;;;38.10;32.50;;;6.80;99.90;;;;;;5044732;28;20840;-70
2023/02/13 08:39:52;;;;;;;41.10;34.00;;;6.80;99.90;;;;;;5055101;28;20467;-70
2023/02/13 08:42:19;;;;;;;44.53;35.30;;;6.80;99.90;;;;;;5050798;28;20955;-70
2023/02/13 08:44:45;;;;;;;38.90;32.60;;;7.00;99.90;;;;;;5049546;28;20978;-70
2023/02/13 08:47:12;;;;;;;42.07;33.90;;;7.00;99.90;;;;;;5047473;28;21042;-70
2023/02/13 08:49:39;;;;;;;47.77;34.93;;;7.10;99.90;;;;;;5046396;28;20495;-72
2023/02/13 08:52:06;;;;;;;39.03;33.90;;;7.10;99.90;;;;;;5049399;28;20504;-72
2023/02/13 08:54:35;;;;;;;45.47;35.07;;;7.20;99.90;;;;;;5054823;28;20463;-69
2023/02/13 08:57:03;;;;;;;42.50;34.40;;;7.30;99.90;;;;;;5051552;28;20869;-70
2023/02/13 08:59:30;;;;;;;39.00;32.80;;;7.40;99.90;;;;;;5043898;28;20463;-70
2023/02/13 09:01:57;;;;;;;39.50;33.80;;;7.40;99.90;;;;;;5052637;28;20475;-70
2023/02/13 09:04:24;;;;;;;37.33;32.80;;;7.40;99.90;;;;;;5056495;28;20587;-73
2023/02/13 09:06:51;;;;;;;38.73;32.63;;;7.50;99.90;;;;;;5049059;28;20475;-72
2023/02/13 09:09:18;;;;;;;37.77;31.87;;;7.50;99.90;;;;;;5047228;28;20486;-70
2023/02/13 09:11:44;;;;;;;37.03;32.40;;;7.70;99.90;;;;;;5049241;28;20463;-70
2023/02/13 09:14:13;;;;;;;46.10;34.80;;;7.80;99.90;;;;;;5048617;28;20451;-70
2023/02/13 09:16:41;;;;;;;38.00;32.67;;;7.90;99.90;;;;;;5051030;28;20826;-72
2023/02/13 09:19:07;;;;;;;43.57;34.40;;;7.90;99.90;;;;;;5055276;28;20476;-73
2023/02/13 09:21:35;;;;;;;37.97;32.47;;;8.00;99.90;;;;;;5048847;28;20847;-70
2023/02/13 09:24:01;;;;;;;40.60;34.07;;;8.00;99.90;;;;;;5048145;28;20466;-70
2023/02/13 09:26:28;;;;;;;41.23;34.37;;;8.00;99.90;;;;;;5051497;28;21012;-70
2023/02/13 09:28:55;;;;;;;39.10;33.53;;;8.00;99.90;;;;;;5057347;28;20487;-70
2023/02/13 09:31:23;;;;;;;39.00;33.90;;;8.10;99.90;;;;;;5051110;28;20463;-72
2023/02/13 09:33:50;;;;;;;45.20;34.90;;;8.10;99.90;;;;;;5060380;28;20506;-70
2023/02/13 09:36:20;;;;;;;41.37;34.93;;;8.20;99.90;;;;;;5058501;28;20482;-70
2023/02/13 09:38:47;;;;;;;43.90;35.97;;;8.30;99.90;;;;;;5051978;28;20885;-70
2023/02/13 09:41:18;;;;;;;40.87;34.10;;;8.50;99.90;;;;;;5053452;28;20487;-70
2023/02/13 09:43:49;;;;;;;39.50;33.40;;;8.60;99.90;;;;;;5063423;28;20471;-71
2023/02/13 09:46:19;;;;;;;38.20;34.00;;;8.70;99.90;;;;;;5056507;28;20965;-70
2023/02/13 09:48:51;;;;;;;45.03;35.37;;;8.70;99.90;;;;;;5055202;28;20858;-70
2023/02/13 09:51:22;;;;;;;38.77;34.70;;;8.80;99.90;;;;;;5056035;28;20471;-73
2023/02/13 09:53:53;;;;;;;41.97;34.03;;;9.00;99.90;;;;;;5056962;28;20455;-71
2023/02/13 09:56:27;;;;;;;37.00;32.93;;;9.00;99.90;;;;;;5055095;28;20464;-74
2023/02/13 09:59:00;;;;;;;38.63;34.47;;;9.00;99.90;;;;;;5052964;28;20471;-71
2023/02/13 10:01:31;;;;;;;40.03;34.10;;;9.10;99.90;;;;;;5062991;28;20466;-73
2023/02/13 10:04:25;;;;;;;50.03;34.83;;;9.10;99.90;;;;;;5050296;28;20824;-70
2023/02/13 10:07:05;;;;;;;45.63;33.20;;;9.30;99.90;;;;;;5049531;28;20847;-71
2023/02/13 10:09:40;;;;;;;36.50;32.70;;;9.30;99.90;;;;;;5056679;28;20483;-70
2023/02/13 10:12:26;;;;;;;39.60;34.37;;;9.40;99.90;;;;;;5058187;28;20462;-70
2023/02/13 10:15:05;;;;;;;37.80;33.67;;;9.50;99.90;;;;;;5051576;28;20970;-71
2023/02/13 10:17:36;;;;;;;36.30;32.50;;;9.60;99.90;;;;;;5046871;28;20474;-69
2023/02/13 10:20:06;;;;;;;36.10;32.20;;;9.70;99.90;;;;;;5049237;28;20463;-69
2023/02/13 10:22:38;;;;;;;32.97;29.60;;;9.80;99.90;;;;;;5052048;28;20559;-71
2023/02/13 10:25:10;;;;;;;38.30;31.57;;;9.80;99.90;;;;;;5049192;28;20459;-71
2023/02/13 10:27:41;;;;;;;33.80;30.40;;;9.90;99.90;;;;;;5051780;28;20471;-72
2023/02/13 10:30:18;;;;;;;39.37;31.97;;;10.00;99.90;;;;;;5058102;28;20490;-70
2023/02/13 10:32:51;;;;;;;31.37;28.07;;;10.00;99.90;;;;;;5049440;28;20463;-74
2023/02/13 10:35:24;;;;;;;32.77;29.30;;;10.00;99.90;;;;;;5053062;28;20518;-72
2023/02/13 10:37:54;;;;;;;34.23;30.60;;;10.00;99.90;;;;;;5058831;28;20456;-71
2023/02/13 10:40:24;;;;;;;35.43;27.40;;;10.10;99.90;;;;;;5061164;28;20455;-74
2023/02/13 10:43:03;;;;;;;30.13;27.00;;;10.20;99.90;;;;;;5051514;28;21324;-71
2023/02/13 10:45:47;;;;;;;29.67;26.67;;;10.50;99.90;;;;;;5051008;28;20498;-70
2023/02/13 10:48:27;;;;;;;36.53;26.57;;;11.20;99.90;;;;;;5053892;28;20940;-70
2023/02/13 10:51:05;;;;;;;29.70;26.60;;;12.20;99.90;;;;;;5053921;28;20462;-73
2023/02/13 10:53:48;;;;;;;28.03;25.03;;;12.70;99.90;;;;;;5049894;28;20478;-72
2023/02/13 10:56:23;;;;;;;26.57;24.00;;;13.10;99.90;;;;;;5057222;28;20460;-71
2023/02/13 10:59:12;;;;;;;27.80;25.43;;;13.70;99.90;;;;;;5057341;28;20454;-71
2023/02/13 11:01:46;;;;;;;28.47;25.80;;;14.80;99.90;;;;;;5061002;28;20466;-72
2023/02/13 11:04:17;;;;;;;26.50;24.20;;;15.70;99.90;;;;;;5062027;28;20479;-70
2023/02/13 11:06:52;;;;;;;27.13;24.40;;;16.30;99.90;;;;;;5049488;28;20996;-69
2023/02/13 11:09:19;;;;;;;28.27;25.67;;;16.40;99.90;;;;;;5049997;28;20486;-70
2023/02/13 11:11:46;;;;;;;25.10;23.00;;;16.20;99.90;;;;;;5051262;28;20467;-72
2023/02/13 11:14:16;;;;;;;26.60;23.63;;;16.80;99.90;;;;;;5056527;28;20918;-70
2023/02/13 11:16:54;;;;;;;30.30;27.33;;;17.00;99.90;;;;;;5061932;28;20466;-70
2023/02/13 11:19:26;;;;;;;26.70;24.30;;;17.50;99.90;;;;;;5057989;28;20466;-70
2023/02/13 11:22:01;;;;;;;25.63;23.53;;;17.20;99.90;;;;;;5057519;28;20570;-72
2023/02/13 11:24:29;;;;;;;26.87;24.50;;;17.60;99.90;;;;;;5053709;28;21209;-70
2023/02/13 11:27:04;;;;;;;26.97;24.67;;;18.20;99.90;;;;;;5051711;28;20533;-72
2023/02/13 11:29:33;;;;;;;27.30;24.90;;;18.20;99.90;;;;;;5052237;28;20495;-69
2023/02/13 11:32:21;;;;;;;26.37;24.17;;;18.30;99.90;;;;;;5053577;28;20459;-70
2023/02/13 11:34:51;;;;;;;25.57;23.60;;;18.00;99.90;;;;;;5055057;28;20857;-70
2023/02/13 11:37:22;;;;;;;25.33;23.13;;;18.30;99.90;;;;;;5051383;28;20466;-70
2023/02/13 11:39:51;;;;;;;25.63;23.47;;;19.10;99.90;;;;;;5051343;28;20467;-72
2023/02/13 11:42:25;;;;;;;26.30;23.63;;;19.60;99.90;;;;;;5052810;28;20490;-69
2023/02/13 11:44:55;;;;;;;26.93;24.63;;;19.80;99.90;;;;;;5049693;28;20551;-70
2023/02/13 11:47:35;;;;;;;26.57;24.00;;;19.40;99.90;;;;;;5057310;28;20463;-70
2023/02/13 11:50:03;;;;;;;27.77;24.90;;;19.60;99.90;;;;;;5055281;28;20851;-70
2023/02/13 11:52:33;;;;;;;26.57;24.33;;;19.90;99.90;;;;;;5055108;28;20460;-73
2023/02/13 11:55:01;;;;;;;25.20;23.10;;;19.30;99.90;;;;;;5052957;28;20463;-70
2023/02/13 11:57:31;;;;;;;27.13;25.03;;;18.70;99.90;;;;;;5049106;28;20475;-70
2023/02/13 12:00:00;;;;;;;26.53;24.13;;;19.00;99.90;;;;;;5056245;28;20477;-74
2023/02/13 12:02:29;;;;;;;25.20;23.20;;;19.30;99.90;;;;;;5050524;28;20957;-70
2023/02/13 12:05:16;;;;;;;27.27;24.60;;;19.00;99.90;;;;;;5055658;28;20491;-72
2023/02/13 12:07:45;;;;;;;26.13;23.40;;;19.20;99.90;;;;;;5049568;28;20471;-69
2023/02/13 12:10:20;;;;;;;26.90;24.53;;;19.70;99.90;;;;;;5055471;28;21017;-71
2023/02/13 12:12:53;;;;;;;25.50;23.50;;;19.40;99.90;;;;;;5056660;28;20537;-69
2023/02/13 12:15:22;;;;;;;26.20;23.90;;;19.50;99.90;;;;;;5051683;28;20460;-70
2023/02/13 12:18:02;;;;;;;25.83;23.33;;;19.90;99.90;;;;;;5052838;28;20468;-70
2023/02/13 12:20:37;;;;;;;26.20;23.90;;;19.70;99.90;;;;;;5054105;28;20470;-70
2023/02/13 12:23:12;;;;;;;27.10;24.80;;;20.10;99.10;;;;;;5054436;28;20462;-70
2023/02/13 12:26:02;;;;;;;25.80;23.60;;;20.10;99.00;;;;;;5054170;28;20467;-70
2023/02/13 12:28:41;;;;;;;25.67;23.73;;;20.30;99.00;;;;;;5051794;28;20563;-70
2023/02/13 12:31:47;;;;;;;26.20;23.80;;;20.60;96.50;;;;;;5053752;28;20525;-74
2023/02/13 12:34:43;;;;;;;25.50;23.30;;;19.80;98.60;;;;;;5052509;28;21038;-70
2023/02/13 12:37:18;;;;;;;26.57;24.23;;;20.20;98.80;;;;;;5053954;28;20455;-70
2023/02/13 12:39:54;;;;;;;26.37;24.00;;;20.40;97.60;;;;;;5049717;28;20466;-72
2023/02/13 12:42:35;;;;;;;26.63;24.03;;;20.50;97.10;;;;;;5047539;28;20482;-70
2023/02/13 12:45:24;;;;;;;26.60;24.30;;;20.30;97.30;;;;;;5050927;28;20467;-72
2023/02/13 12:48:04;;;;;;;26.60;24.20;;;20.20;96.90;;;;;;5048785;28;20554;-70
2023/02/13 12:50:40;;;;;;;27.40;24.30;;;21.10;97.00;;;;;;5053055;28;20552;-70
2023/02/13 12:53:28;;;;;;;25.30;23.10;;;21.00;95.30;;;;;;5049712;28;20972;-73
2023/02/13 12:56:23;;;;;;;25.00;22.77;;;20.80;95.70;;;;;;5054183;28;20459;-70
2023/02/13 12:59:00;;;;;;;24.90;22.80;;;20.20;95.90;;;;;;5058926;28;20463;-71
2023/02/13 13:01:46;;;;;;;25.40;23.30;;;20.40;98.00;;;;;;5058002;28;20541;-71
2023/02/13 13:04:20;;;;;;;28.93;23.73;;;20.90;96.30;;;;;;5058159;28;20478;-70
2023/02/13 13:07:18;;;;;;;27.07;24.50;;;21.50;94.80;;;;;;5055699;28;20462;-73
2023/02/13 13:09:55;;;;;;;25.90;23.70;;;21.40;94.50;;;;;;5058442;28;20479;-70
2023/02/13 13:12:33;;;;;;;27.20;24.67;;;21.50;95.00;;;;;;5059916;28;20459;-72
2023/02/13 13:15:07;;;;;;;26.73;24.37;;;21.60;94.80;;;;;;5058878;28;20458;-73
2023/02/13 13:17:46;;;;;;;26.27;24.03;;;21.80;94.30;;;;;;5047436;28;21111;-71
2023/02/13 13:20:37;;;;;;;28.07;25.53;;;22.20;93.60;;;;;;5060131;28;20537;-71
2023/02/13 13:23:11;;;;;;;27.93;25.23;;;21.70;93.80;;;;;;5058106;28;20529;-71
2023/02/13 13:25:48;;;;;;;30.87;24.03;;;21.70;92.40;;;;;;5059602;28;20973;-72
2023/02/13 13:28:19;;;;;;;27.13;24.90;;;21.80;92.60;;;;;;5055240;28;21009;-72
2023/02/13 13:30:47;;;;;;;27.90;25.00;;;21.70;93.40;;;;;;5053163;28;20499;-72
2023/02/13 13:33:17;;;;;;;29.00;26.00;;;21.90;92.80;;;;;;5060321;28;20810;-71
2023/02/13 13:35:53;;;;;;;26.40;24.00;;;21.90;92.90;;;;;;5059343;28;21006;-72
2023/02/13 13:38:30;;;;;;;26.77;24.50;;;21.90;92.80;;;;;;5063441;28;20558;-71